This is the latest recevied weather packets stored in our database for station/object KE5BM-13. If no packets are shown the sender has not sent any weather packets the latest 10 day(s).
| Time | Temp. | Humidity | Pressure | Rain* | Wind** | Luminosity | Snow |
|---|---|---|---|---|---|---|---|
| 1777676251 | 13.33° C | 69% | 1009.1 hPa | 0 mm | - | - | - |
| 1777675952 | 13.33° C | 66% | 1009 hPa | 0 mm | - | - | - |
| 1777675651 | 13.89° C | 64% | 1008.8 hPa | 0 mm | - | - | - |
| 1777675351 | 13.89° C | 62% | 1008.8 hPa | 0 mm | - | - | - |
| 1777674752 | 14.44° C | 59% | 1008.7 hPa | 0 mm | - | - | - |
| 1777674447 | 14.44° C | 59% | 1008.7 hPa | 0 mm | - | - | - |
| 1777674147 | 14.44° C | 58% | 1008.6 hPa | 0 mm | - | - | - |
| 1777673846 | 14.44° C | 58% | 1008.5 hPa | 0 mm | - | - | - |
| 1777673543 | 14.44° C | 58% | 1008.5 hPa | 0 mm | - | - | - |
| 1777673244 | 14.44° C | 59% | 1008.5 hPa | 0 mm | - | - | - |
| 1777672943 | 15° C | 59% | 1008.6 hPa | 0 mm | - | - | - |
| 1777672641 | 15° C | 58% | 1008.5 hPa | 0 mm | - | - | - |
| 1777672342 | 15.56° C | 58% | 1008.5 hPa | 0 mm | - | - | - |
| 1777672042 | 15.56° C | 58% | 1008.4 hPa | 0 mm | - | - | - |
| 1777671741 | 15.56° C | 58% | 1008.4 hPa | 0 mm | - | - | - |
| 1777671440 | 16.11° C | 55% | 1008.3 hPa | 0 mm | - | - | - |
| 1777671141 | 16.67° C | 54% | 1008.3 hPa | 0 mm | - | - | - |
| 1777670840 | 17.22° C | 52% | 1008.2 hPa | 0 mm | - | - | - |
| 1777670538 | 18.33° C | 45% | 1008.2 hPa | 0 mm | - | - | - |
| 1777670239 | 17.22° C | 51% | 1008.2 hPa | 0 mm | - | - | - |
| 1777669940 | 16.67° C | 49% | 1008.1 hPa | 0 mm | - | - | - |
| 1777669636 | 16.67° C | 48% | 1008.1 hPa | 0 mm | - | - | - |
| 1777669335 | 16.67° C | 49% | 1008.1 hPa | 0 mm | - | - | - |
| 1777669034 | 16.67° C | 49% | 1008.1 hPa | 0 mm | - | - | - |
| 1777668725 | 16.67° C | 51% | 1008.1 hPa | 0 mm | - | - | - |
* Rain latest hour (hover to see other rain measurements)
** Current wind speed in m/s (hover to see current wind gust speed)